Chicago Heights, Illinois
Current Conditions -  °F | °C
As of 8:15 AM on Thursday 18 Dec 2014 (Local Time) from KIGQ Reporting Station
Overcast Overcast  
Wind Chill: 19°   Ceiling: 2000
Heat Index: 25°   Visibility: 10mi
Dew Point: 17°   Wind: 5mph
Humidity: 74%   Direction: 260°W
Pressure: 30.3"   Gusts: NA
Location:  41.5°N, 87.64°W
Report Text: KIGQ 181415Z AUTO 26004KT 10SM OVC020 M04/M08 A3030 RMK AO2 T10411081
Loading
Personal Weather Stations






























Interactive Weather Map New forecast layout! Learn more

10-Day Weather Forecast

Advertisements
Track Severe Weather on mobile